Time;durP1;ratioP1;P1;durP2;ratioP2;P2;SDS_P1;SDS_P2;PMS_P1;PMS_P2;Temp;Humidity;BMP_temperature;BMP_pressure;BME280_temperature;BME280_humidity;BME280_pressure;Samples;Min_cycle;Max_cycle;Signal;HPM_P1;HPM_P2
2021/12/09 00:04:24;;;;;;;36.30;14.63;;;;;;;-6.27;100.00;99428.44;10245047;28;20034;-88
2021/12/09 00:09:25;;;;;;;28.77;12.50;;;;;;;-3.57;100.00;100042.56;10249209;28;20484;-88
2021/12/09 00:14:27;;;;;;;32.07;14.60;;;;;;;-3.55;100.00;100072.81;10251207;28;20075;-88
2021/12/09 00:19:28;;;;;;;32.70;14.57;;;;;;;-2.60;100.00;100032.69;10266512;28;20477;-88
2021/12/09 00:24:28;;;;;;;31.50;15.80;;;;;;;-6.19;100.00;99433.72;10282542;28;20117;-88
2021/12/09 00:29:29;;;;;;;31.90;14.03;;;;;;;-5.78;100.00;99628.16;10282734;28;20022;-88
2021/12/09 00:34:35;;;;;;;32.03;15.10;;;;;;;-1.44;100.00;100171.94;10282546;28;20057;-88
2021/12/09 00:39:35;;;;;;;37.53;16.27;;;;;;;-1.43;100.00;100397.72;10266295;28;20047;-88
2021/12/09 00:44:36;;;;;;;35.27;16.30;;;;;;;-3.29;100.00;99907.34;10250337;28;20051;-88
2021/12/09 00:49:36;;;;;;;31.90;16.20;;;;;;;-3.14;100.00;100034.72;10282212;28;20542;-87
2021/12/09 00:54:38;;;;;;;35.03;16.67;;;;;;;-1.65;100.00;100182.72;10265518;28;20050;-87
2021/12/09 00:59:39;;;;;;;32.60;17.37;;;;;;;-3.30;100.00;100100.31;10297474;28;20065;-87
2021/12/09 01:04:42;;;;;;;32.37;16.67;;;;;;;-3.86;100.00;100009.19;10280514;28;20057;-87
2021/12/09 01:09:42;;;;;;;35.90;16.53;;;;;;;-2.52;100.00;100114.28;10264489;28;20037;-86
2021/12/09 01:14:43;;;;;;;33.87;18.53;;;;;;;-4.69;100.00;99757.53;10280674;28;20447;-87
2021/12/09 01:19:43;;;;;;;32.83;18.23;;;;;;;-5.12;100.00;99735.75;10264024;28;20428;-88
2021/12/09 01:24:44;;;;;;;39.33;18.20;;;;;;;-8.46;100.00;99155.25;10264226;28;20070;-86
2021/12/09 01:29:52;;;;;;;41.33;20.07;;;;;;;-5.64;100.00;99681.00;10280526;28;20106;-86
2021/12/09 01:34:52;;;;;;;42.23;18.73;;;;;;;-2.26;100.00;100204.59;10248685;28;20039;-86
2021/12/09 01:39:53;;;;;;;36.03;19.87;;;;;;;-2.34;100.00;100186.66;10280010;28;20399;-86
2021/12/09 01:44:53;;;;;;;42.27;20.70;;;;;;;-1.81;100.00;100274.72;10263419;28;20053;-88
2021/12/09 01:49:55;;;;;;;41.10;21.87;;;;;;;-3.01;100.00;100020.59;10279006;28;20041;-87
2021/12/09 01:54:55;;;;;;;50.97;23.53;;;;;;;-4.46;100.00;99816.56;10262616;28;20086;-86
2021/12/09 01:59:56;;;;;;;51.27;21.60;;;;;;;-3.75;100.00;99958.66;10278125;28;20090;-86
2021/12/09 02:04:56;;;;;;;52.73;23.13;;;;;;;-5.80;100.00;99576.56;10278193;28;20034;-86
2021/12/09 02:09:57;;;;;;;43.80;22.00;;;;;;;-1.68;100.00;100194.72;10246520;28;20042;-86
2021/12/09 02:14:59;;;;;;;44.93;23.20;;;;;;;-3.19;100.00;100084.75;10278596;28;20046;-86
2021/12/09 02:20:01;;;;;;;47.30;22.13;;;;;;;-6.33;100.00;99542.47;10246985;28;20042;-86
2021/12/09 02:25:01;;;;;;;46.17;23.23;;;;;;;-6.26;100.00;99525.69;10261509;28;20419;-86
2021/12/09 02:30:01;;;;;;;48.33;24.60;;;;;;;-2.96;100.00;100093.56;10277056;28;20042;-87
2021/12/09 02:35:02;;;;;;;58.67;27.37;;;;;;;-5.87;100.00;99571.06;10278107;28;20074;-86
2021/12/09 02:40:06;;;;;;;57.70;27.13;;;;;;;-6.34;100.00;99562.25;10277694;28;20056;-87
2021/12/09 02:45:08;;;;;;;54.70;27.07;;;;;;;-3.36;100.00;100016.78;10261415;28;20286;-87
2021/12/09 02:50:09;;;;;;;62.43;28.73;;;;;;;-6.67;100.00;99558.94;10244744;28;20107;-86
2021/12/09 02:55:09;;;;;;;52.27;29.27;;;;;;;-4.51;100.00;99980.13;10260069;28;20135;-86
2021/12/09 03:00:11;;;;;;;55.43;28.70;;;;;;;-6.53;100.00;99534.09;10260526;28;20137;-86
2021/12/09 03:05:11;;;;;;;57.83;29.70;;;;;;;-3.08;100.00;100047.44;10260363;28;20134;-87
2021/12/09 03:10:20;;;;;;;60.90;32.03;;;;;;;-3.34;100.00;100122.41;10276521;28;20117;-87
2021/12/09 03:15:21;;;;;;;65.30;33.50;;;;;;;-5.40;100.00;99716.69;10260056;28;20487;-87
2021/12/09 03:20:21;;;;;;;68.57;34.97;;;;;;;-6.22;100.00;99607.38;10259777;28;20133;-87
2021/12/09 03:25:21;;;;;;;62.33;34.00;;;;;;;-6.91;100.00;99525.09;10275563;28;20067;-85
2021/12/09 03:30:24;;;;;;;67.97;33.83;;;;;;;-6.37;100.00;99626.88;10276020;28;20399;-85
2021/12/09 03:35:24;;;;;;;68.80;36.63;;;;;;;-4.09;100.00;99957.31;10275723;28;20054;-86
2021/12/09 03:40:25;;;;;;;60.80;33.07;;;;;;;-5.31;100.00;99763.91;10259998;28;20442;-86
2021/12/09 03:45:25;;;;;;;72.70;36.87;;;;;;;-3.13;100.00;100192.53;10289189;28;20126;-85
2021/12/09 03:50:26;;;;;;;70.87;35.60;;;;;;;-3.31;100.00;100111.25;10272743;28;20039;-86
2021/12/09 03:55:27;;;;;;;68.20;36.33;;;;;;;-3.88;100.00;99970.88;10272535;28;20162;-85
2021/12/09 04:00:28;;;;;;;67.73;35.83;;;;;;;-2.91;100.00;100123.50;10256603;28;20082;-87
2021/12/09 04:05:29;;;;;;;75.20;38.70;;;;;;;-2.92;100.00;100115.59;10272590;28;20042;-87
2021/12/09 04:10:32;;;;;;;74.00;39.17;;;;;;;-5.94;100.00;99587.03;10288770;28;20043;-87
2021/12/09 04:15:33;;;;;;;87.00;40.53;;;;;;;-3.96;100.00;99944.06;10288344;28;20046;-87
2021/12/09 04:20:33;;;;;;;81.80;40.37;;;;;;;-2.18;100.00;100236.03;10272285;28;20035;-87
2021/12/09 04:25:34;;;;;;;72.53;38.30;;;;;;;-7.87;100.00;99414.66;10271886;28;20462;-85
2021/12/09 04:30:34;;;;;;;85.83;41.93;;;;;;;-3.89;100.00;99910.03;10256144;28;20471;-85
2021/12/09 04:35:35;;;;;;;102.47;43.13;;;;;;;-2.55;100.00;100154.25;10287819;28;20043;-85
2021/12/09 04:40:35;;;;;;;80.57;41.37;;;;;;;-3.24;100.00;100053.00;10271574;28;20073;-87
2021/12/09 04:45:38;;;;;;;83.67;41.90;;;;;;;-6.19;100.00;99706.97;10271652;28;20483;-87
2021/12/09 04:50:38;;;;;;;85.13;40.47;;;;;;;-2.97;100.00;100061.47;10287754;28;20039;-87
2021/12/09 04:55:39;;;;;;;86.60;41.03;;;;;;;-1.87;100.00;100244.75;10281893;28;20057;-86
2021/12/09 05:00:39;;;;;;;79.20;39.47;;;;;;;-3.90;100.00;99946.03;10265484;28;20507;-87
2021/12/09 05:05:50;;;;;;;76.30;39.53;;;;;;;-5.71;100.00;99616.53;10281363;28;20070;-87
2021/12/09 05:11:00;;;;;;;81.27;39.87;;;;;;;-3.38;100.00;100207.22;10265897;28;20089;-87
2021/12/09 05:16:01;;;;;;;83.37;40.13;;;;;;;-5.55;100.00;99781.00;10250093;28;20508;-87
2021/12/09 05:21:02;;;;;;;86.27;41.73;;;;;;;-6.86;100.00;99611.03;10264431;28;20050;-87
2021/12/09 05:26:03;;;;;;;88.27;42.60;;;;;;;-6.45;100.00;99589.41;10248610;28;20073;-87
2021/12/09 05:36:23;;;;;;;93.23;42.63;;;;;;;-5.52;100.00;99698.34;10266561;28;20043;-87
2021/12/09 05:41:23;;;;;;;95.27;45.60;;;;;;;-5.77;100.00;99619.91;10279617;28;20481;-88
2021/12/09 05:46:24;;;;;;;95.97;43.00;;;;;;;-2.37;100.00;100259.84;10263578;28;20039;-87
2021/12/09 05:51:25;;;;;;;92.00;44.27;;;;;;;-3.52;100.00;100032.06;10279506;28;20031;-87
2021/12/09 05:56:25;;;;;;;96.17;44.60;;;;;;;-5.97;100.00;99758.97;10295463;28;20384;-87
2021/12/09 06:01:26;;;;;;;104.27;49.70;;;;;;;-2.78;100.00;100122.00;10279861;28;20391;-87
2021/12/09 06:06:26;;;;;;;93.87;42.83;;;;;;;-2.49;100.00;100216.31;10262087;28;20173;-85
2021/12/09 06:11:27;;;;;;;96.07;45.73;;;;;;;-2.32;100.00;100219.66;10278504;28;20038;-85
2021/12/09 06:16:27;;;;;;;106.30;47.33;;;;;;;-6.20;100.00;99715.19;10262185;28;20039;-87
2021/12/09 06:21:28;;;;;;;104.83;49.07;;;;;;;-3.71;100.00;100014.59;10262485;28;20035;-89
2021/12/09 06:26:30;;;;;;;105.33;48.97;;;;;;;-3.69;100.00;100011.72;10247267;28;20074;-87
2021/12/09 06:31:30;;;;;;;100.70;47.83;;;;;;;-3.25;100.00;100078.22;10245329;28;20511;-83
2021/12/09 06:36:31;;;;;;;105.87;47.97;;;;;;;-5.52;100.00;99754.66;10260732;28;20130;-90
2021/12/09 06:41:31;;;;;;;102.93;48.60;;;;;;;-4.79;100.00;99875.94;10297365;28;20531;-87
2021/12/09 06:46:32;;;;;;;111.70;51.07;;;;;;;-3.09;100.00;100183.06;10284768;28;20107;-87
2021/12/09 06:51:32;;;;;;;103.77;49.70;;;;;;;-6.96;100.00;99749.53;10283812;28;20026;-87
2021/12/09 06:56:34;;;;;;;106.07;49.17;;;;;;;-8.45;100.00;99328.56;10299733;28;20092;-86
2021/12/09 07:01:36;;;;;;;112.93;50.90;;;;;;;-3.79;100.00;100054.19;10283725;28;20113;-86
2021/12/09 07:06:37;;;;;;;111.13;50.73;;;;;;;-4.18;100.00;100057.84;10283535;28;20041;-87
2021/12/09 07:11:38;;;;;;;117.27;52.17;;;;;;;-4.76;100.00;100074.25;10283438;28;20050;-87
2021/12/09 07:16:38;;;;;;;119.97;53.17;;;;;;;-2.86;100.00;100261.13;10299075;28;20038;-87
2021/12/09 07:21:39;;;;;;;115.70;49.93;;;;;;;-2.89;100.00;100352.28;10282972;28;20517;-87
2021/12/09 07:26:39;;;;;;;118.50;52.27;;;;;;;-3.96;100.00;100194.13;10282959;28;20034;-87
2021/12/09 07:31:40;;;;;;;116.97;49.87;;;;;;;-5.43;100.00;99894.91;10283579;28;20035;-87
2021/12/09 07:36:40;;;;;;;106.20;51.10;;;;;;;-5.78;100.00;99791.69;10298970;28;20078;-88
2021/12/09 07:41:41;;;;;;;110.03;50.37;;;;;;;-2.40;100.00;100286.31;10267163;28;20133;-87
2021/12/09 07:46:43;;;;;;;124.27;51.87;;;;;;;-4.40;100.00;100001.22;10282409;28;20042;-87
2021/12/09 07:51:43;;;;;;;115.40;52.60;;;;;;;-6.94;100.00;99605.72;10282946;28;20078;-87
2021/12/09 07:56:44;;;;;;;113.37;53.40;;;;;;;-3.59;100.00;100226.72;10298701;28;20179;-87
2021/12/09 08:01:44;;;;;;;109.87;50.93;;;;;;;-4.82;100.00;99969.41;10298610;28;20110;-86
2021/12/09 08:06:45;;;;;;;116.53;52.07;;;;;;;-3.33;100.00;100232.59;10282125;28;20398;-86
2021/12/09 08:11:45;;;;;;;127.77;52.63;;;;;;;-6.79;100.00;99555.78;10281930;28;20394;-85
2021/12/09 08:16:56;;;;;;;129.07;52.30;;;;;;;-2.91;100.00;100181.91;10266218;28;20053;-86
2021/12/09 08:21:56;;;;;;;109.53;46.70;;;;;;;-2.24;100.00;100280.75;10283181;28;20394;-87
2021/12/09 08:26:57;;;;;;;116.30;53.93;;;;;;;-3.37;100.00;100099.41;10281961;28;20074;-85
2021/12/09 08:31:57;;;;;;;112.10;50.23;;;;;;;-2.59;100.00;100206.84;10304524;28;20089;-86
2021/12/09 08:36:58;;;;;;;111.67;49.20;;;;;;;-2.59;100.00;100274.22;10289189;28;20141;-86
2021/12/09 08:41:58;;;;;;;112.30;49.13;;;;;;;-5.18;100.00;99827.72;10304992;28;20130;-86
2021/12/09 08:46:59;;;;;;;118.57;51.77;;;;;;;-6.16;100.00;99711.13;10288848;28;20039;-87
2021/12/09 08:51:59;;;;;;;108.50;49.27;;;;;;;-6.50;100.00;99698.91;10273135;28;20440;-87
2021/12/09 08:57:03;;;;;;;114.70;52.77;;;;;;;-1.71;100.00;100348.94;10304258;28;20569;-87
2021/12/09 09:02:04;;;;;;;111.10;49.97;;;;;;;-2.53;100.00;100201.53;10304682;28;20074;-86
2021/12/09 09:07:06;;;;;;;119.70;50.30;;;;;;;-1.72;100.00;100371.53;10303755;28;20066;-87
2021/12/09 09:12:08;;;;;;;105.27;48.50;;;;;;;-4.82;100.00;99789.53;10288347;28;20371;-87
2021/12/09 09:17:09;;;;;;;102.83;45.47;;;;;;;-2.38;100.00;100190.75;10320178;28;20046;-86
2021/12/09 09:22:09;;;;;;;104.30;48.47;;;;;;;-5.11;100.00;99899.25;10287575;28;20062;-86
2021/12/09 09:27:10;;;;;;;110.27;46.37;;;;;;;-4.59;100.00;99878.94;10286785;28;20133;-86
2021/12/09 09:32:12;;;;;;;100.40;46.93;;;;;;;-3.61;100.00;99982.06;10287131;28;20116;-86
2021/12/09 09:37:13;;;;;;;95.13;43.87;;;;;;;-4.81;100.00;99722.22;10302708;28;20046;-85
2021/12/09 09:47:15;;;;;;;109.27;48.53;;;;;;;-4.54;100.00;99846.19;10302784;28;20511;-87
2021/12/09 09:52:16;;;;;;;96.23;44.20;;;;;;;-3.98;100.00;99803.63;10302927;28;20034;-86
2021/12/09 09:57:16;;;;;;;102.23;44.60;;;;;;;-2.19;100.00;100351.16;10286736;28;20081;-89
2021/12/09 10:02:17;;;;;;;93.43;44.83;;;;;;;-3.59;100.00;99871.59;10302774;28;20092;-86
2021/12/09 10:07:21;;;;;;;99.50;45.30;;;;;;;-4.81;100.00;99797.41;10286552;28;20066;-88
2021/12/09 10:12:21;;;;;;;77.53;37.97;;;;;;;-2.13;100.00;100120.34;10301737;28;20038;-87
2021/12/09 10:17:23;;;;;;;79.63;38.17;;;;;;;-1.37;100.00;100187.34;10285679;28;20047;-86
2021/12/09 10:22:32;;;;;;;92.93;41.63;;;;;;;-3.72;100.00;99904.50;10269793;28;20183;-88
2021/12/09 10:27:34;;;;;;;90.03;42.27;;;;;;;-3.78;100.00;100002.91;10285562;28;20119;-89
2021/12/09 10:32:35;;;;;;;79.03;38.00;;;;;;;-1.42;100.00;100115.03;10269503;28;20068;-87
2021/12/09 10:37:37;;;;;;;75.90;36.70;;;;;;;-4.25;100.00;99673.41;10269252;28;20070;-89
2021/12/09 10:42:46;;;;;;;73.63;35.90;;;;;;;-3.88;100.00;99823.00;10285262;28;20042;-89
2021/12/09 10:47:59;;;;;;;68.40;33.40;;;;;;;0.40;100.00;100328.59;10285864;28;20044;-84
2021/12/09 10:53:28;;;;;;;63.80;32.00;;;;;;;-0.83;100.00;100101.13;10315890;28;20038;-86
2021/12/09 10:58:27;;;;;;;60.97;27.63;;;;;;;-3.81;100.00;99691.28;10304359;28;20406;-89
2021/12/09 11:03:40;;;;;;;61.57;28.73;;;;;;;-3.65;100.00;99657.94;10301135;28;20051;-88
2021/12/09 11:08:49;;;;;;;50.85;24.58;;;;;;;-4.63;100.00;99627.03;10301211;28;20085;-88
2021/12/09 11:13:55;;;;;;;47.30;24.03;;;;;;;-2.32;100.00;100025.53;10300150;28;20045;-89
2021/12/09 11:19:06;;;;;;;34.17;19.17;;;;;;;-3.12;100.00;99779.59;10300282;28;20096;-87
2021/12/09 11:24:14;;;;;;;38.17;20.13;;;;;;;-2.27;100.00;99839.78;10299820;28;20398;-87
2021/12/09 11:29:20;;;;;;;32.23;17.23;;;;;;;0.57;100.00;100182.81;10300185;28;20031;-88
2021/12/09 11:34:24;;;;;;;27.23;15.90;;;;;;;-3.63;100.00;99577.06;10283885;28;20046;-88
2021/12/09 11:39:31;;;;;;;28.67;14.70;;;;;;;-0.63;100.00;100049.88;10270212;28;20042;-89
2021/12/09 11:44:32;;;;;;;28.98;15.43;;;;;;;-5.48;100.00;99388.56;10286249;28;20108;-87
2021/12/09 11:49:33;;;;;;;25.42;14.07;;;;;;;-3.30;100.00;99516.25;10301216;28;20057;-90
2021/12/09 11:54:33;;;;;;;24.50;12.27;;;;;;;-2.31;100.00;99862.78;10285211;28;20070;-89
2021/12/09 12:15:29;;;;;;;24.20;13.30;;;;;;;1.58;100.00;100259.59;10309854;28;20034;-88
2021/12/09 12:20:39;;;;;;;28.43;12.63;;;;;;;-3.26;100.00;99470.94;10323027;28;20034;-90
2021/12/09 12:31:08;;;;;;;29.97;13.50;;;;;;;-0.52;100.00;100017.88;10306959;28;20046;-88
2021/12/09 12:36:51;;;;;;;29.00;13.60;;;;;;;-4.54;100.00;99330.47;10278981;28;20464;-88
2021/12/09 12:42:03;;;;;;;23.57;13.53;;;;;;;-4.52;100.00;99352.59;10300960;28;20423;-89
2021/12/09 12:47:14;;;;;;;27.57;14.90;;;;;;;-2.86;100.00;99620.06;10331972;28;20034;-89
2021/12/09 12:52:26;;;;;;;25.37;14.53;;;;;;;-0.84;100.00;100017.56;10334015;28;20029;-89
2021/12/09 12:57:38;;;;;;;24.70;12.73;;;;;;;-0.49;100.00;100052.63;10348738;28;20046;-88
2021/12/09 13:03:07;;;;;;;27.07;14.33;;;;;;;-2.68;100.00;99783.91;10332681;28;20524;-88
2021/12/09 13:08:30;;;;;;;35.27;15.20;;;;;;;-3.93;100.00;99535.00;10325013;28;20124;-88
2021/12/09 13:14:07;;;;;;;26.52;13.73;;;;;;;-1.17;100.00;99975.00;10290079;28;20018;-88
2021/12/09 13:19:14;;;;;;;26.43;14.03;;;;;;;1.80;100.00;100261.03;10309614;28;20038;-90
2021/12/09 13:24:43;;;;;;;23.63;13.30;;;;;;;1.78;100.00;100254.16;10312515;28;20037;-89
2021/12/09 13:30:04;;;;;;;27.87;13.73;;;;;;;-0.39;100.00;100088.25;10316347;28;20116;-88
2021/12/09 13:35:16;;;;;;;23.88;13.40;;;;;;;-1.91;100.00;99760.53;10303056;28;20053;-89
2021/12/09 13:45:47;;;;;;;23.63;13.23;;;;;;;-0.29;100.00;100145.50;10292071;28;20430;-89
2021/12/09 13:46:09;;;;;;;25.73;14.27;;;;;;;-3.17;100.00;99545.09;10304375;28;20061;-88
2021/12/09 13:51:29;;;;;;;27.60;13.53;;;;;;;-4.90;100.00;99234.75;10297955;28;20037;-89
2021/12/09 13:56:30;;;;;;;29.60;13.47;;;;;;;1.88;100.00;100346.00;10298035;28;20046;-88
2021/12/09 14:01:30;;;;;;;28.57;13.40;;;;;;;-4.41;100.00;99346.69;10330273;28;20050;-89
2021/12/09 14:06:31;;;;;;;25.53;13.43;;;;;;;-1.91;100.00;99781.31;10272543;28;20034;-89
2021/12/09 14:11:39;;;;;;;22.37;13.80;;;;;;;-4.08;100.00;99536.94;10285846;28;20506;-88
2021/12/09 14:16:49;;;;;;;27.20;13.60;;;;;;;-1.20;100.00;99867.34;10290290;28;20069;-89
2021/12/09 14:21:50;;;;;;;26.83;14.13;;;;;;;-2.54;100.00;99676.19;10270669;28;20041;-89
2021/12/09 14:26:54;;;;;;;22.43;13.83;;;;;;;1.84;100.00;100238.88;10286459;28;20367;-89
2021/12/09 14:31:56;;;;;;;24.80;13.50;;;;;;;-1.02;100.00;99964.88;10318104;28;20027;-88
2021/12/09 14:36:59;;;;;;;24.97;13.13;;;;;;;-1.31;100.00;99724.81;10301894;28;20489;-89
2021/12/09 14:42:17;;;;;;;30.65;15.95;;;;;;;-2.39;100.00;99845.91;10325479;28;20045;-89
2021/12/09 14:47:17;;;;;;;28.60;15.00;;;;;;;-0.04;100.00;100172.06;10325508;28;20544;-89
2021/12/09 14:52:42;;;;;;;34.30;15.27;;;;;;;-4.88;100.00;99321.28;10310591;28;20176;-89
2021/12/09 14:57:51;;;;;;;30.57;16.03;;;;;;;0.07;100.00;100003.66;10327348;28;20052;-89
2021/12/09 15:02:53;;;;;;;37.28;15.55;;;;;;;-0.89;100.00;99947.91;10358954;28;20046;-89
2021/12/09 15:08:04;;;;;;;31.23;15.20;;;;;;;-0.85;100.00;99919.44;10326665;28;20040;-90
2021/12/09 15:13:07;;;;;;;24.20;14.13;;;;;;;-3.12;100.00;99566.91;10310736;28;20038;-89
2021/12/09 15:18:08;;;;;;;26.97;14.97;;;;;;;-0.49;100.00;100063.47;10326398;28;20038;-90
2021/12/09 15:23:42;;;;;;;26.80;15.00;;;;;;;-2.81;100.00;99510.91;10325856;28;20030;-88
2021/12/09 15:28:44;;;;;;;35.17;16.40;;;;;;;-2.73;100.00;99670.53;10328984;28;20037;-90
2021/12/09 15:33:49;;;;;;;31.93;15.33;;;;;;;0.71;100.00;100356.25;10325855;28;20040;-89
2021/12/09 15:39:23;;;;;;;31.30;18.03;;;;;;;-4.12;100.00;99312.56;10310071;28;20096;-91
2021/12/09 15:44:32;;;;;;;26.63;15.47;;;;;;;-1.62;100.00;99820.66;10334366;28;20037;-92
2021/12/09 15:49:45;;;;;;;28.90;15.70;;;;;;;-5.61;100.00;99179.25;10311093;28;20037;-91
2021/12/09 15:54:50;;;;;;;37.50;17.83;;;;;;;-5.15;100.00;99135.06;10341390;28;20183;-90
2021/12/09 16:00:00;;;;;;;30.50;17.13;;;;;;;-0.53;100.00;100113.56;10341234;28;20042;-92
2021/12/09 16:05:22;;;;;;;30.52;16.10;;;;;;;-1.60;100.00;99798.88;10331764;28;20045;-90
2021/12/09 16:10:23;;;;;;;33.70;16.20;;;;;;;-2.93;100.00;99613.00;10326233;28;20030;-92
2021/12/09 16:15:27;;;;;;;32.03;15.33;;;;;;;-2.89;100.00;99616.97;10341311;28;20042;-90
2021/12/09 16:20:36;;;;;;;32.25;17.60;;;;;;;1.14;100.00;100318.03;10325195;28;20497;-92
2021/12/09 16:25:39;;;;;;;27.20;15.68;;;;;;;-3.25;100.00;99586.47;10325125;28;20030;-90
2021/12/09 16:30:40;;;;;;;32.20;17.00;;;;;;;-3.87;100.00;99515.41;10324803;28;20029;-91
2021/12/09 16:35:45;;;;;;;30.20;16.43;;;;;;;-1.81;100.00;99648.75;10325309;28;20058;-89
2021/12/09 16:40:46;;;;;;;34.27;16.63;;;;;;;2.05;100.00;100363.53;10324662;28;20124;-90
2021/12/09 16:45:46;;;;;;;34.27;17.10;;;;;;;-5.17;100.00;99148.66;10323742;28;20071;-90
2021/12/09 16:50:47;;;;;;;33.80;16.50;;;;;;;-1.26;100.00;99776.34;10326869;28;20029;-91
2021/12/09 16:56:00;;;;;;;34.47;16.63;;;;;;;-1.99;100.00;99739.13;10330978;28;20556;-91
2021/12/09 17:01:08;;;;;;;29.47;16.87;;;;;;;-3.63;100.00;99478.38;10347416;28;20045;-89
2021/12/09 17:06:14;;;;;;;34.00;17.80;;;;;;;-2.65;100.00;99637.19;10346944;28;20108;-90
2021/12/09 17:11:14;;;;;;;31.15;17.98;;;;;;;-0.84;100.00;99834.63;10330454;28;20359;-87
2021/12/09 17:16:17;;;;;;;30.73;17.45;;;;;;;-2.26;100.00;99746.25;10330533;28;20038;-89
2021/12/09 17:21:20;;;;;;;37.63;20.67;;;;;;;-3.60;100.00;99421.47;10330483;28;20405;-89
2021/12/09 17:26:20;;;;;;;36.17;19.70;;;;;;;-2.21;100.00;99586.56;10330890;28;20080;-89
2021/12/09 17:31:28;;;;;;;39.63;19.47;;;;;;;-4.30;100.00;99273.63;10345830;28;20037;-89
2021/12/09 17:36:31;;;;;;;38.05;18.90;;;;;;;-5.01;100.00;99117.22;10346570;28;20044;-89
2021/12/09 17:41:33;;;;;;;35.07;20.43;;;;;;;-0.37;100.00;100029.38;10344988;28;20493;-89
2021/12/09 17:46:38;;;;;;;32.13;18.17;;;;;;;-2.27;100.00;99640.28;10329517;28;20688;-89
2021/12/09 17:51:47;;;;;;;34.53;18.17;;;;;;;-3.85;100.00;99325.13;10329276;28;20034;-89
2021/12/09 17:56:48;;;;;;;37.00;19.63;;;;;;;-1.55;100.00;99691.97;10344619;28;20405;-90
2021/12/09 18:01:56;;;;;;;39.75;19.27;;;;;;;-0.29;100.00;99831.75;10328961;28;20096;-89
2021/12/09 18:06:59;;;;;;;40.07;19.43;;;;;;;-2.11;100.00;99574.38;10329422;28;20441;-89
2021/12/09 18:12:12;;;;;;;;;;;;;;;;;;;;;
2021/12/09 18:17:21;;;;;;;29.77;18.50;;;;;;;-0.87;100.00;99753.13;10346930;28;20056;-89
2021/12/09 18:22:23;;;;;;;35.57;19.63;;;;;;;-0.38;100.00;99865.44;10329688;28;20036;-90
2021/12/09 18:27:24;;;;;;;31.40;18.97;;;;;;;1.28;100.00;100086.50;10344800;28;20556;-89
2021/12/09 18:32:27;;;;;;;37.80;19.27;;;;;;;-1.27;100.00;99758.47;10327780;28;20092;-89
2021/12/09 18:37:35;;;;;;;34.87;21.23;;;;;;;-4.04;100.00;99250.59;10326673;28;20540;-89
2021/12/09 18:42:35;;;;;;;38.33;20.43;;;;;;;-2.11;100.00;99622.06;10344020;28;20034;-89
2021/12/09 18:47:41;;;;;;;38.47;20.23;;;;;;;-2.62;100.00;99633.28;10327947;28;20040;-91
2021/12/09 18:52:44;;;;;;;37.37;20.17;;;;;;;-3.50;100.00;99483.00;10343474;28;20034;-89
2021/12/09 18:57:44;;;;;;;36.28;20.60;;;;;;;-1.92;100.00;99556.59;10325348;28;20402;-89
2021/12/09 19:02:45;;;;;;;46.10;21.87;;;;;;;0.60;100.00;99998.22;10342264;28;20405;-89
2021/12/09 19:07:45;;;;;;;38.90;20.50;;;;;;;-4.90;100.00;99009.28;10325258;28;20371;-89
2021/12/09 19:12:46;;;;;;;37.13;20.50;;;;;;;-3.48;100.00;99371.44;10325143;28;20109;-89
2021/12/09 19:17:53;;;;;;;42.63;22.85;;;;;;;-4.34;100.00;99334.16;10310077;28;20060;-89
2021/12/09 19:22:53;;;;;;;49.43;23.07;;;;;;;-2.52;100.00;99674.16;10341243;28;20069;-88
2021/12/09 19:27:55;;;;;;;44.17;22.63;;;;;;;-2.05;100.00;99616.72;10340226;28;20492;-88
2021/12/09 19:32:56;;;;;;;48.23;24.63;;;;;;;-3.53;100.00;99495.00;10308956;28;20022;-88
2021/12/09 19:37:57;;;;;;;51.33;26.13;;;;;;;-0.22;100.00;99989.47;10340645;28;20046;-88
2021/12/09 19:42:57;;;;;;;53.60;28.53;;;;;;;-1.66;100.00;99765.41;10341218;28;20041;-88
2021/12/09 19:47:58;;;;;;;51.70;24.77;;;;;;;-5.02;100.00;99182.63;10340298;28;20061;-89
2021/12/09 19:52:58;;;;;;;61.57;27.93;;;;;;;-2.62;100.00;99525.50;10324626;28;20460;-89
2021/12/09 19:58:01;;;;;;;56.67;28.07;;;;;;;-2.48;100.00;99455.28;10326704;28;20502;-91
2021/12/09 20:03:02;;;;;;;61.08;27.00;;;;;;;-2.46;100.00;99479.31;10328182;28;20091;-90
2021/12/09 20:08:04;;;;;;;56.33;27.23;;;;;;;-0.84;100.00;99725.69;10325855;28;20046;-90
2021/12/09 20:13:04;;;;;;;68.30;30.53;;;;;;;-2.94;100.00;99519.75;10309229;28;20057;-89
2021/12/09 20:18:05;;;;;;;65.17;28.70;;;;;;;-2.79;100.00;99393.88;10340456;28;20437;-90
2021/12/09 20:23:06;;;;;;;69.27;30.40;;;;;;;0.12;100.00;99957.84;10324963;28;20030;-89
2021/12/09 20:28:06;;;;;;;69.63;30.83;;;;;;;-2.13;100.00;99403.88;10331422;28;20091;-90
2021/12/09 20:33:07;;;;;;;67.40;29.67;;;;;;;2.33;100.00;100349.66;10331802;28;20034;-90
2021/12/09 20:38:07;;;;;;;72.90;35.00;;;;;;;-1.92;100.00;99631.25;10332780;28;20117;-89
2021/12/09 20:43:08;;;;;;;75.35;32.33;;;;;;;-0.47;100.00;99750.44;10332530;28;20131;-90
2021/12/09 20:48:09;;;;;;;71.75;31.27;;;;;;;-1.23;100.00;99748.94;10331964;28;20065;-89
2021/12/09 20:53:10;;;;;;;74.75;32.60;;;;;;;-1.26;100.00;99754.72;10347823;28;20080;-89
2021/12/09 20:58:11;;;;;;;80.18;34.78;;;;;;;-3.86;100.00;99271.56;10330112;28;20077;-87
2021/12/09 21:03:12;;;;;;;77.07;35.78;;;;;;;-1.55;100.00;99696.53;10313733;28;20042;-89
2021/12/09 21:08:12;;;;;;;69.47;32.93;;;;;;;-3.37;100.00;99186.25;10331233;28;20037;-88
2021/12/09 21:13:15;;;;;;;85.82;34.75;;;;;;;0.42;100.00;99876.19;10346148;28;20041;-88
2021/12/09 21:18:16;;;;;;;92.60;36.93;;;;;;;-0.07;100.00;99909.97;10314615;28;20497;-88
2021/12/09 21:23:17;;;;;;;89.85;37.65;;;;;;;-4.12;100.00;99116.38;10329473;28;20037;-89
2021/12/09 21:28:19;;;;;;;84.10;36.25;;;;;;;-3.01;100.00;99454.28;10330124;28;20441;-90
2021/12/09 21:33:25;;;;;;;93.90;38.55;;;;;;;-3.52;100.00;99136.16;10329229;28;20061;-89
2021/12/09 21:38:26;;;;;;;89.10;37.25;;;;;;;0.72;100.00;99975.91;10329276;28;20096;-89
2021/12/09 21:43:27;;;;;;;87.17;37.70;;;;;;;-1.86;100.00;99587.28;10328948;28;20049;-88
2021/12/09 21:48:28;;;;;;;92.22;39.58;;;;;;;-1.91;100.00;99436.03;10344887;28;20045;-89
2021/12/09 21:53:28;;;;;;;96.50;38.40;;;;;;;-0.22;100.00;99745.19;10345488;28;20100;-89
2021/12/09 21:58:29;;;;;;;101.60;39.40;;;;;;;-4.20;100.00;99100.44;10344603;28;20128;-89
2021/12/09 22:03:29;;;;;;;89.15;36.78;;;;;;;-2.04;100.00;99483.53;10312595;28;20187;-90
2021/12/09 22:08:30;;;;;;;99.60;40.43;;;;;;;-2.26;100.00;99402.00;10328198;28;20038;-89
2021/12/09 22:13:30;;;;;;;97.93;37.83;;;;;;;-2.33;100.00;99417.34;10328043;28;20026;-89
2021/12/09 22:18:31;;;;;;;102.20;41.73;;;;;;;-2.51;100.00;99371.31;10343807;28;20129;-89
2021/12/09 22:23:33;;;;;;;100.28;39.38;;;;;;;-1.81;100.00;99432.91;10327961;28;20117;-89
2021/12/09 22:28:34;;;;;;;105.72;41.47;;;;;;;-0.39;100.00;99668.22;10344138;28;20036;-89
2021/12/09 22:33:35;;;;;;;97.67;38.00;;;;;;;-4.09;100.00;99172.44;10343205;28;20121;-89
2021/12/09 22:38:36;;;;;;;112.33;43.43;;;;;;;-2.07;100.00;99259.28;10326927;28;20034;-88
2021/12/09 22:43:37;;;;;;;90.72;39.40;;;;;;;-1.69;100.00;99277.44;10326354;28;20080;-89
2021/12/09 22:48:39;;;;;;;93.25;40.85;;;;;;;0.14;100.00;99678.88;10309064;28;20049;-88
2021/12/09 22:53:42;;;;;;;106.55;41.97;;;;;;;-1.44;100.00;99391.72;10310161;28;20022;-88
2021/12/09 22:58:44;;;;;;;99.30;39.33;;;;;;;-2.01;100.00;99231.47;10310312;28;20081;-88
2021/12/09 23:03:45;;;;;;;95.20;40.30;;;;;;;-0.05;100.00;99672.50;10341660;28;20046;-88
2021/12/09 23:08:49;;;;;;;102.68;38.38;;;;;;;-1.32;100.00;99431.56;10309790;28;20466;-88
2021/12/09 23:13:56;;;;;;;95.25;40.90;;;;;;;0.74;100.00;99868.97;10325515;28;20057;-87